This is the latest recevied weather packets stored in our database for station/object SQ4IXR-4. If no packets are shown the sender has not sent any weather packets the latest 10 day(s).
| Time | Temp. | Humidity | Pressure | Rain* | Wind** | Luminosity | Snow |
|---|---|---|---|---|---|---|---|
| 1777304862 | 10.56° C | 32% | 1022.9 hPa | - | - | - | - |
| 1777304042 | 11.67° C | 29% | 1022.9 hPa | - | - | - | - |
| 1777303218 | 12.22° C | 29% | 1022.9 hPa | - | - | - | - |
| 1777302395 | 12.22° C | 29% | 1022.7 hPa | - | - | - | - |
| 1777301572 | 12.78° C | 28% | 1022.7 hPa | - | - | - | - |
| 1777300752 | 12.78° C | 27% | 1022.7 hPa | - | - | - | - |
| 1777299929 | 13.89° C | 27% | 1022.6 hPa | - | - | - | - |
| 1777299104 | 12.78° C | 27% | 1022.6 hPa | - | - | - | - |
| 1777298283 | 13.33° C | 28% | 1022.7 hPa | - | - | - | - |
| 1777297460 | 13.89° C | 27% | 1022.8 hPa | - | - | - | - |
| 1777296637 | 14.44° C | 26% | 1022.7 hPa | - | - | - | - |
| 1777295814 | 15.56° C | 25% | 1022.5 hPa | - | - | - | - |
| 1777294992 | 13.89° C | 26% | 1022.7 hPa | - | - | - | - |
| 1777294168 | 16.11° C | 24% | 1022.5 hPa | - | - | - | - |
| 1777293344 | 15.56° C | 24% | 1022.5 hPa | - | - | - | - |
| 1777292522 | 16.67° C | 23% | 1022.3 hPa | - | - | - | - |
| 1777291699 | 15.56° C | 23% | 1022.5 hPa | - | - | - | - |
| 1777290874 | 17.78° C | 21% | 1022.2 hPa | - | - | - | - |
| 1777290050 | 15.56° C | 23% | 1022.6 hPa | - | - | - | - |
| 1777289226 | 16.11° C | 23% | 1022.4 hPa | - | - | - | - |
| 1777288403 | 16.67° C | 23% | 1022.4 hPa | - | - | - | - |
| 1777287580 | 17.22° C | 22% | 1022.3 hPa | - | - | - | - |
| 1777286757 | 17.78° C | 21% | 1022.3 hPa | - | - | - | - |
| 1777285932 | 15.56° C | 23% | 1022.5 hPa | - | - | - | - |
| 1777285104 | 16.11° C | 23% | 1022.4 hPa | - | - | - | - |
* Rain since midnight (hover to see other rain measurements)
** Current wind speed in m/s (hover to see current wind gust speed)